sensor_id;sensor_type;location;lat;lon;timestamp;P1;durP1;ratioP1;P2;durP2;ratioP2
37131;SDS011;23035;50.032;21.978;2024-01-27T00:00:33;9.23;;;8.33;;
37131;SDS011;23035;50.032;21.978;2024-01-27T00:06:00;10.23;;;9.15;;
37131;SDS011;23035;50.032;21.978;2024-01-27T00:11:05;12.18;;;9.00;;
37131;SDS011;23035;50.032;21.978;2024-01-27T00:16:10;9.80;;;8.80;;
37131;SDS011;23035;50.032;21.978;2024-01-27T00:21:17;12.87;;;10.20;;
37131;SDS011;23035;50.032;21.978;2024-01-27T00:26:21;14.90;;;10.07;;
37131;SDS011;23035;50.032;21.978;2024-01-27T00:31:42;17.77;;;9.93;;
37131;SDS011;23035;50.032;21.978;2024-01-27T00:36:48;16.58;;;11.52;;
37131;SDS011;23035;50.032;21.978;2024-01-27T00:41:52;15.20;;;10.45;;
37131;SDS011;23035;50.032;21.978;2024-01-27T00:46:58;14.20;;;9.50;;
37131;SDS011;23035;50.032;21.978;2024-01-27T00:52:04;18.30;;;11.15;;
37131;SDS011;23035;50.032;21.978;2024-01-27T00:57:09;17.15;;;10.32;;
37131;SDS011;23035;50.032;21.978;2024-01-27T01:02:13;16.25;;;9.93;;
37131;SDS011;23035;50.032;21.978;2024-01-27T01:07:19;22.83;;;12.25;;
37131;SDS011;23035;50.032;21.978;2024-01-27T01:17:29;15.95;;;9.25;;
37131;SDS011;23035;50.032;21.978;2024-01-27T01:22:35;14.85;;;9.65;;
37131;SDS011;23035;50.032;21.978;2024-01-27T01:27:39;14.70;;;9.10;;
37131;SDS011;23035;50.032;21.978;2024-01-27T01:32:44;13.02;;;8.35;;
37131;SDS011;23035;50.032;21.978;2024-01-27T01:37:50;11.95;;;8.57;;
37131;SDS011;23035;50.032;21.978;2024-01-27T01:42:54;18.52;;;9.27;;
37131;SDS011;23035;50.032;21.978;2024-01-27T01:47:59;13.57;;;8.10;;
37131;SDS011;23035;50.032;21.978;2024-01-27T01:53:05;9.03;;;7.33;;
37131;SDS011;23035;50.032;21.978;2024-01-27T01:58:10;6.50;;;5.18;;
37131;SDS011;23035;50.032;21.978;2024-01-27T02:03:15;7.07;;;5.20;;
37131;SDS011;23035;50.032;21.978;2024-01-27T02:08:21;8.77;;;5.50;;
37131;SDS011;23035;50.032;21.978;2024-01-27T02:13:26;6.70;;;6.00;;
37131;SDS011;23035;50.032;21.978;2024-01-27T02:18:30;6.65;;;5.20;;
37131;SDS011;23035;50.032;21.978;2024-01-27T02:23:36;10.25;;;5.50;;
37131;SDS011;23035;50.032;21.978;2024-01-27T02:33:46;10.27;;;5.00;;
37131;SDS011;23035;50.032;21.978;2024-01-27T02:38:50;8.00;;;4.63;;
37131;SDS011;23035;50.032;21.978;2024-01-27T02:43:56;6.35;;;4.05;;
37131;SDS011;23035;50.032;21.978;2024-01-27T02:49:00;7.05;;;4.30;;
37131;SDS011;23035;50.032;21.978;2024-01-27T02:54:04;8.68;;;4.00;;
37131;SDS011;23035;50.032;21.978;2024-01-27T02:59:10;6.50;;;3.58;;
37131;SDS011;23035;50.032;21.978;2024-01-27T03:04:15;7.72;;;3.70;;
37131;SDS011;23035;50.032;21.978;2024-01-27T03:09:20;6.10;;;3.40;;
37131;SDS011;23035;50.032;21.978;2024-01-27T03:14:25;7.90;;;3.05;;
37131;SDS011;23035;50.032;21.978;2024-01-27T03:19:30;7.30;;;3.45;;
37131;SDS011;23035;50.032;21.978;2024-01-27T03:24:34;8.48;;;3.40;;
37131;SDS011;23035;50.032;21.978;2024-01-27T03:29:40;11.13;;;3.58;;
37131;SDS011;23035;50.032;21.978;2024-01-27T03:39:49;8.90;;;3.55;;
37131;SDS011;23035;50.032;21.978;2024-01-27T03:44:54;6.78;;;2.90;;
37131;SDS011;23035;50.032;21.978;2024-01-27T03:55:03;10.00;;;3.00;;
37131;SDS011;23035;50.032;21.978;2024-01-27T04:05:15;9.40;;;2.50;;
37131;SDS011;23035;50.032;21.978;2024-01-27T04:10:20;13.13;;;2.92;;
37131;SDS011;23035;50.032;21.978;2024-01-27T04:15:26;12.57;;;3.20;;
37131;SDS011;23035;50.032;21.978;2024-01-27T04:20:31;8.30;;;2.55;;
37131;SDS011;23035;50.032;21.978;2024-01-27T04:25:36;12.13;;;3.03;;
37131;SDS011;23035;50.032;21.978;2024-01-27T04:30:41;10.52;;;3.35;;
37131;SDS011;23035;50.032;21.978;2024-01-27T04:35:45;13.10;;;3.70;;
37131;SDS011;23035;50.032;21.978;2024-01-27T04:40:50;12.77;;;3.53;;
37131;SDS011;23035;50.032;21.978;2024-01-27T04:45:56;9.13;;;2.92;;
37131;SDS011;23035;50.032;21.978;2024-01-27T04:51:00;11.30;;;3.90;;
37131;SDS011;23035;50.032;21.978;2024-01-27T04:56:05;7.50;;;3.33;;
37131;SDS011;23035;50.032;21.978;2024-01-27T05:01:12;11.48;;;3.10;;
37131;SDS011;23035;50.032;21.978;2024-01-27T05:11:25;7.88;;;3.92;;
37131;SDS011;23035;50.032;21.978;2024-01-27T05:16:32;12.20;;;3.35;;
37131;SDS011;23035;50.032;21.978;2024-01-27T05:26:41;7.82;;;2.83;;
37131;SDS011;23035;50.032;21.978;2024-01-27T05:31:47;6.57;;;2.65;;
37131;SDS011;23035;50.032;21.978;2024-01-27T05:36:52;11.52;;;3.15;;
37131;SDS011;23035;50.032;21.978;2024-01-27T05:41:57;11.13;;;3.40;;
37131;SDS011;23035;50.032;21.978;2024-01-27T05:47:04;17.05;;;3.55;;
37131;SDS011;23035;50.032;21.978;2024-01-27T05:52:13;7.95;;;2.67;;
37131;SDS011;23035;50.032;21.978;2024-01-27T05:57:27;9.82;;;2.85;;
37131;SDS011;23035;50.032;21.978;2024-01-27T06:02:32;9.63;;;3.70;;
37131;SDS011;23035;50.032;21.978;2024-01-27T06:07:37;10.30;;;2.92;;
37131;SDS011;23035;50.032;21.978;2024-01-27T06:12:43;13.75;;;2.78;;
37131;SDS011;23035;50.032;21.978;2024-01-27T06:17:49;8.20;;;3.00;;
37131;SDS011;23035;50.032;21.978;2024-01-27T06:22:54;10.32;;;3.08;;
37131;SDS011;23035;50.032;21.978;2024-01-27T06:27:58;9.88;;;3.63;;
37131;SDS011;23035;50.032;21.978;2024-01-27T06:33:05;14.50;;;3.88;;
37131;SDS011;23035;50.032;21.978;2024-01-27T06:38:10;9.15;;;3.15;;
37131;SDS011;23035;50.032;21.978;2024-01-27T06:43:14;15.45;;;3.85;;
37131;SDS011;23035;50.032;21.978;2024-01-27T06:48:20;10.88;;;3.47;;
37131;SDS011;23035;50.032;21.978;2024-01-27T06:53:25;9.85;;;2.78;;
37131;SDS011;23035;50.032;21.978;2024-01-27T06:58:29;12.80;;;3.97;;
37131;SDS011;23035;50.032;21.978;2024-01-27T07:03:35;15.50;;;3.80;;
37131;SDS011;23035;50.032;21.978;2024-01-27T07:08:42;8.45;;;2.83;;
37131;SDS011;23035;50.032;21.978;2024-01-27T07:13:46;15.23;;;3.30;;
37131;SDS011;23035;50.032;21.978;2024-01-27T07:18:52;14.07;;;4.90;;
37131;SDS011;23035;50.032;21.978;2024-01-27T07:23:57;9.85;;;3.20;;
37131;SDS011;23035;50.032;21.978;2024-01-27T07:29:03;10.27;;;3.47;;
37131;SDS011;23035;50.032;21.978;2024-01-27T07:34:09;19.83;;;4.57;;
37131;SDS011;23035;50.032;21.978;2024-01-27T07:39:13;15.43;;;4.35;;
37131;SDS011;23035;50.032;21.978;2024-01-27T07:44:18;14.80;;;4.63;;
37131;SDS011;23035;50.032;21.978;2024-01-27T07:49:24;13.57;;;4.07;;
37131;SDS011;23035;50.032;21.978;2024-01-27T07:54:28;12.57;;;4.38;;
37131;SDS011;23035;50.032;21.978;2024-01-27T07:59:34;13.95;;;4.93;;
37131;SDS011;23035;50.032;21.978;2024-01-27T08:04:39;12.57;;;4.40;;
37131;SDS011;23035;50.032;21.978;2024-01-27T08:09:44;16.88;;;4.53;;
37131;SDS011;23035;50.032;21.978;2024-01-27T08:14:48;16.15;;;5.40;;
37131;SDS011;23035;50.032;21.978;2024-01-27T08:19:54;14.90;;;5.37;;
37131;SDS011;23035;50.032;21.978;2024-01-27T08:30:03;11.00;;;4.18;;
37131;SDS011;23035;50.032;21.978;2024-01-27T08:35:11;14.82;;;4.63;;
37131;SDS011;23035;50.032;21.978;2024-01-27T08:40:16;14.82;;;5.20;;
37131;SDS011;23035;50.032;21.978;2024-01-27T08:45:21;13.25;;;4.60;;
37131;SDS011;23035;50.032;21.978;2024-01-27T08:50:27;17.02;;;4.95;;
37131;SDS011;23035;50.032;21.978;2024-01-27T08:55:32;16.38;;;4.78;;
37131;SDS011;23035;50.032;21.978;2024-01-27T09:00:36;20.58;;;5.38;;
37131;SDS011;23035;50.032;21.978;2024-01-27T09:05:43;18.02;;;6.95;;
37131;SDS011;23035;50.032;21.978;2024-01-27T09:10:48;20.17;;;7.82;;
37131;SDS011;23035;50.032;21.978;2024-01-27T09:15:53;19.98;;;7.78;;
37131;SDS011;23035;50.032;21.978;2024-01-27T09:20:59;20.92;;;9.23;;
37131;SDS011;23035;50.032;21.978;2024-01-27T09:26:04;19.55;;;10.68;;
37131;SDS011;23035;50.032;21.978;2024-01-27T09:31:09;23.70;;;10.02;;
37131;SDS011;23035;50.032;21.978;2024-01-27T09:36:15;27.50;;;10.75;;
37131;SDS011;23035;50.032;21.978;2024-01-27T09:41:20;22.52;;;9.10;;
37131;SDS011;23035;50.032;21.978;2024-01-27T09:46:28;19.73;;;8.18;;
37131;SDS011;23035;50.032;21.978;2024-01-27T09:51:34;17.35;;;8.75;;
37131;SDS011;23035;50.032;21.978;2024-01-27T10:01:43;18.52;;;9.18;;
37131;SDS011;23035;50.032;21.978;2024-01-27T10:11:54;25.70;;;10.75;;
37131;SDS011;23035;50.032;21.978;2024-01-27T10:17:00;37.30;;;15.50;;
37131;SDS011;23035;50.032;21.978;2024-01-27T10:22:05;48.40;;;18.73;;
37131;SDS011;23035;50.032;21.978;2024-01-27T10:27:09;87.07;;;28.70;;
37131;SDS011;23035;50.032;21.978;2024-01-27T10:32:14;168.27;;;39.53;;
37131;SDS011;23035;50.032;21.978;2024-01-27T10:37:25;65.72;;;20.02;;
37131;SDS011;23035;50.032;21.978;2024-01-27T10:42:29;47.88;;;19.30;;
37131;SDS011;23035;50.032;21.978;2024-01-27T10:47:34;49.13;;;16.27;;
37131;SDS011;23035;50.032;21.978;2024-01-27T10:52:41;35.55;;;14.13;;
37131;SDS011;23035;50.032;21.978;2024-01-27T10:57:48;30.27;;;12.35;;
37131;SDS011;23035;50.032;21.978;2024-01-27T11:02:56;22.75;;;10.73;;
37131;SDS011;23035;50.032;21.978;2024-01-27T11:08:09;28.48;;;10.15;;
37131;SDS011;23035;50.032;21.978;2024-01-27T11:18:26;20.15;;;9.15;;
37131;SDS011;23035;50.032;21.978;2024-01-27T11:23:34;16.02;;;9.45;;
37131;SDS011;23035;50.032;21.978;2024-01-27T11:28:39;19.65;;;9.68;;
37131;SDS011;23035;50.032;21.978;2024-01-27T11:34:15;23.75;;;10.25;;
37131;SDS011;23035;50.032;21.978;2024-01-27T11:45:41;15.65;;;7.60;;
37131;SDS011;23035;50.032;21.978;2024-01-27T11:50:46;19.55;;;9.82;;
37131;SDS011;23035;50.032;21.978;2024-01-27T11:55:59;13.68;;;8.52;;
37131;SDS011;23035;50.032;21.978;2024-01-27T12:01:05;14.03;;;9.10;;
37131;SDS011;23035;50.032;21.978;2024-01-27T12:06:15;23.10;;;9.38;;
37131;SDS011;23035;50.032;21.978;2024-01-27T12:11:20;16.17;;;8.50;;
37131;SDS011;23035;50.032;21.978;2024-01-27T12:16:30;17.05;;;9.25;;
37131;SDS011;23035;50.032;21.978;2024-01-27T12:21:47;31.60;;;11.38;;
37131;SDS011;23035;50.032;21.978;2024-01-27T12:26:54;18.40;;;9.73;;
37131;SDS011;23035;50.032;21.978;2024-01-27T12:32:01;23.83;;;10.52;;
37131;SDS011;23035;50.032;21.978;2024-01-27T12:37:07;20.02;;;9.50;;
37131;SDS011;23035;50.032;21.978;2024-01-27T12:42:15;15.55;;;9.57;;
37131;SDS011;23035;50.032;21.978;2024-01-27T12:47:21;21.03;;;11.93;;
37131;SDS011;23035;50.032;21.978;2024-01-27T12:52:33;16.77;;;9.50;;
37131;SDS011;23035;50.032;21.978;2024-01-27T12:57:38;16.80;;;9.73;;
37131;SDS011;23035;50.032;21.978;2024-01-27T13:02:45;17.45;;;9.45;;
37131;SDS011;23035;50.032;21.978;2024-01-27T13:07:49;18.42;;;9.75;;
37131;SDS011;23035;50.032;21.978;2024-01-27T13:12:54;15.63;;;9.35;;
37131;SDS011;23035;50.032;21.978;2024-01-27T13:18:00;13.47;;;8.63;;
37131;SDS011;23035;50.032;21.978;2024-01-27T13:23:05;19.30;;;9.13;;
37131;SDS011;23035;50.032;21.978;2024-01-27T13:28:09;18.50;;;9.60;;
37131;SDS011;23035;50.032;21.978;2024-01-27T13:33:16;16.70;;;9.02;;
37131;SDS011;23035;50.032;21.978;2024-01-27T13:38:21;15.95;;;8.68;;
37131;SDS011;23035;50.032;21.978;2024-01-27T13:43:26;14.30;;;8.85;;
37131;SDS011;23035;50.032;21.978;2024-01-27T13:48:33;17.38;;;8.93;;
37131;SDS011;23035;50.032;21.978;2024-01-27T13:53:38;17.60;;;9.13;;
37131;SDS011;23035;50.032;21.978;2024-01-27T13:58:50;17.42;;;9.13;;
37131;SDS011;23035;50.032;21.978;2024-01-27T14:03:57;20.33;;;10.80;;
37131;SDS011;23035;50.032;21.978;2024-01-27T14:09:02;19.15;;;10.95;;
37131;SDS011;23035;50.032;21.978;2024-01-27T14:14:07;16.03;;;10.17;;
37131;SDS011;23035;50.032;21.978;2024-01-27T14:19:13;14.48;;;8.98;;
37131;SDS011;23035;50.032;21.978;2024-01-27T14:24:17;13.10;;;8.13;;
37131;SDS011;23035;50.032;21.978;2024-01-27T14:29:23;18.15;;;10.15;;
37131;SDS011;23035;50.032;21.978;2024-01-27T14:34:28;15.25;;;9.32;;
37131;SDS011;23035;50.032;21.978;2024-01-27T14:39:33;11.70;;;8.23;;
37131;SDS011;23035;50.032;21.978;2024-01-27T14:44:38;12.27;;;7.95;;
37131;SDS011;23035;50.032;21.978;2024-01-27T14:49:44;10.55;;;7.90;;
37131;SDS011;23035;50.032;21.978;2024-01-27T14:54:48;9.73;;;7.40;;
37131;SDS011;23035;50.032;21.978;2024-01-27T14:59:54;13.50;;;8.30;;
37131;SDS011;23035;50.032;21.978;2024-01-27T15:05:00;14.38;;;8.38;;
37131;SDS011;23035;50.032;21.978;2024-01-27T15:10:04;14.98;;;7.63;;
37131;SDS011;23035;50.032;21.978;2024-01-27T15:15:12;9.85;;;6.80;;
37131;SDS011;23035;50.032;21.978;2024-01-27T15:20:47;12.40;;;7.18;;
37131;SDS011;23035;50.032;21.978;2024-01-27T15:25:52;12.40;;;6.20;;
37131;SDS011;23035;50.032;21.978;2024-01-27T15:30:59;15.38;;;7.75;;
37131;SDS011;23035;50.032;21.978;2024-01-27T15:36:09;14.20;;;7.25;;
37131;SDS011;23035;50.032;21.978;2024-01-27T15:41:15;12.10;;;6.03;;
37131;SDS011;23035;50.032;21.978;2024-01-27T15:46:21;10.82;;;6.15;;
37131;SDS011;23035;50.032;21.978;2024-01-27T15:51:27;12.88;;;6.30;;
37131;SDS011;23035;50.032;21.978;2024-01-27T15:56:32;9.35;;;5.80;;
37131;SDS011;23035;50.032;21.978;2024-01-27T16:01:36;10.07;;;6.30;;
37131;SDS011;23035;50.032;21.978;2024-01-27T16:06:42;11.52;;;7.13;;
37131;SDS011;23035;50.032;21.978;2024-01-27T16:11:49;10.57;;;5.75;;
37131;SDS011;23035;50.032;21.978;2024-01-27T16:16:57;10.50;;;6.07;;
37131;SDS011;23035;50.032;21.978;2024-01-27T16:22:03;13.13;;;6.57;;
37131;SDS011;23035;50.032;21.978;2024-01-27T16:27:08;10.75;;;6.18;;
37131;SDS011;23035;50.032;21.978;2024-01-27T16:32:19;13.45;;;6.40;;
37131;SDS011;23035;50.032;21.978;2024-01-27T16:42:31;10.70;;;6.45;;
37131;SDS011;23035;50.032;21.978;2024-01-27T16:47:38;11.48;;;7.22;;
37131;SDS011;23035;50.032;21.978;2024-01-27T16:52:44;13.80;;;8.70;;
37131;SDS011;23035;50.032;21.978;2024-01-27T16:57:49;14.40;;;8.40;;
37131;SDS011;23035;50.032;21.978;2024-01-27T17:02:54;14.77;;;9.57;;
37131;SDS011;23035;50.032;21.978;2024-01-27T17:08:02;13.30;;;9.82;;
37131;SDS011;23035;50.032;21.978;2024-01-27T17:13:12;12.10;;;8.55;;
37131;SDS011;23035;50.032;21.978;2024-01-27T17:18:18;15.07;;;9.07;;
37131;SDS011;23035;50.032;21.978;2024-01-27T17:23:25;15.07;;;9.50;;
37131;SDS011;23035;50.032;21.978;2024-01-27T17:28:35;18.13;;;10.60;;
37131;SDS011;23035;50.032;21.978;2024-01-27T17:33:45;15.55;;;9.77;;
37131;SDS011;23035;50.032;21.978;2024-01-27T17:38:57;11.25;;;7.72;;
37131;SDS011;23035;50.032;21.978;2024-01-27T17:44:02;14.80;;;8.85;;
37131;SDS011;23035;50.032;21.978;2024-01-27T17:49:07;16.08;;;9.93;;
37131;SDS011;23035;50.032;21.978;2024-01-27T17:54:13;12.38;;;9.23;;
37131;SDS011;23035;50.032;21.978;2024-01-27T17:59:18;13.88;;;10.07;;
37131;SDS011;23035;50.032;21.978;2024-01-27T18:04:23;11.60;;;7.93;;
37131;SDS011;23035;50.032;21.978;2024-01-27T18:09:29;14.65;;;8.85;;
37131;SDS011;23035;50.032;21.978;2024-01-27T18:19:37;18.17;;;10.73;;
37131;SDS011;23035;50.032;21.978;2024-01-27T18:24:43;12.55;;;8.75;;
37131;SDS011;23035;50.032;21.978;2024-01-27T18:34:51;16.48;;;10.13;;
37131;SDS011;23035;50.032;21.978;2024-01-27T18:39:57;15.73;;;10.00;;
37131;SDS011;23035;50.032;21.978;2024-01-27T18:45:04;13.88;;;9.40;;
37131;SDS011;23035;50.032;21.978;2024-01-27T18:50:08;17.33;;;11.48;;
37131;SDS011;23035;50.032;21.978;2024-01-27T18:55:15;20.70;;;13.87;;
37131;SDS011;23035;50.032;21.978;2024-01-27T19:00:22;14.90;;;10.68;;
37131;SDS011;23035;50.032;21.978;2024-01-27T19:05:27;17.20;;;11.00;;
37131;SDS011;23035;50.032;21.978;2024-01-27T19:10:34;13.80;;;10.48;;
37131;SDS011;23035;50.032;21.978;2024-01-27T19:20:43;14.27;;;10.30;;
37131;SDS011;23035;50.032;21.978;2024-01-27T19:25:48;17.50;;;10.88;;
37131;SDS011;23035;50.032;21.978;2024-01-27T19:35:57;17.45;;;10.35;;
37131;SDS011;23035;50.032;21.978;2024-01-27T19:41:03;16.17;;;10.15;;
37131;SDS011;23035;50.032;21.978;2024-01-27T19:46:19;15.93;;;10.13;;
37131;SDS011;23035;50.032;21.978;2024-01-27T19:51:24;15.93;;;10.73;;
37131;SDS011;23035;50.032;21.978;2024-01-27T19:56:31;18.30;;;10.80;;
37131;SDS011;23035;50.032;21.978;2024-01-27T20:06:40;16.08;;;11.15;;
37131;SDS011;23035;50.032;21.978;2024-01-27T20:11:45;14.85;;;10.23;;
37131;SDS011;23035;50.032;21.978;2024-01-27T20:16:51;11.23;;;8.75;;
37131;SDS011;23035;50.032;21.978;2024-01-27T20:21:56;14.67;;;9.40;;
37131;SDS011;23035;50.032;21.978;2024-01-27T20:27:02;12.48;;;9.38;;
37131;SDS011;23035;50.032;21.978;2024-01-27T20:32:08;13.23;;;9.20;;
37131;SDS011;23035;50.032;21.978;2024-01-27T20:37:12;13.05;;;9.63;;
37131;SDS011;23035;50.032;21.978;2024-01-27T20:42:18;18.50;;;10.05;;
37131;SDS011;23035;50.032;21.978;2024-01-27T20:47:22;25.45;;;13.25;;
37131;SDS011;23035;50.032;21.978;2024-01-27T20:52:27;21.83;;;12.43;;
37131;SDS011;23035;50.032;21.978;2024-01-27T20:57:33;17.70;;;11.68;;
37131;SDS011;23035;50.032;21.978;2024-01-27T21:02:38;15.07;;;9.68;;
37131;SDS011;23035;50.032;21.978;2024-01-27T21:07:42;14.23;;;9.57;;
37131;SDS011;23035;50.032;21.978;2024-01-27T21:12:48;17.85;;;11.18;;
37131;SDS011;23035;50.032;21.978;2024-01-27T21:17:53;14.27;;;10.77;;
37131;SDS011;23035;50.032;21.978;2024-01-27T21:22:59;12.63;;;9.75;;
37131;SDS011;23035;50.032;21.978;2024-01-27T21:28:06;12.23;;;8.48;;
37131;SDS011;23035;50.032;21.978;2024-01-27T21:38:14;10.32;;;8.55;;
37131;SDS011;23035;50.032;21.978;2024-01-27T21:43:20;13.45;;;8.88;;
37131;SDS011;23035;50.032;21.978;2024-01-27T21:48:24;11.32;;;8.43;;
37131;SDS011;23035;50.032;21.978;2024-01-27T21:53:28;10.20;;;7.68;;
37131;SDS011;23035;50.032;21.978;2024-01-27T21:58:34;12.27;;;8.83;;
37131;SDS011;23035;50.032;21.978;2024-01-27T22:08:43;12.93;;;8.70;;
37131;SDS011;23035;50.032;21.978;2024-01-27T22:13:49;10.73;;;8.65;;
37131;SDS011;23035;50.032;21.978;2024-01-27T22:18:53;11.20;;;8.88;;
37131;SDS011;23035;50.032;21.978;2024-01-27T22:23:58;12.65;;;9.25;;
37131;SDS011;23035;50.032;21.978;2024-01-27T22:29:04;10.82;;;8.75;;
37131;SDS011;23035;50.032;21.978;2024-01-27T22:39:13;11.52;;;8.07;;
37131;SDS011;23035;50.032;21.978;2024-01-27T22:44:18;11.77;;;9.23;;
37131;SDS011;23035;50.032;21.978;2024-01-27T22:54:28;11.27;;;8.38;;
37131;SDS011;23035;50.032;21.978;2024-01-27T22:59:34;9.10;;;7.65;;
37131;SDS011;23035;50.032;21.978;2024-01-27T23:04:38;12.77;;;8.50;;
37131;SDS011;23035;50.032;21.978;2024-01-27T23:09:44;13.15;;;8.80;;
37131;SDS011;23035;50.032;21.978;2024-01-27T23:19:55;9.00;;;7.40;;
37131;SDS011;23035;50.032;21.978;2024-01-27T23:25:00;12.73;;;8.07;;
37131;SDS011;23035;50.032;21.978;2024-01-27T23:30:07;15.05;;;7.78;;
37131;SDS011;23035;50.032;21.978;2024-01-27T23:35:13;17.10;;;8.60;;
37131;SDS011;23035;50.032;21.978;2024-01-27T23:40:17;14.75;;;8.38;;
37131;SDS011;23035;50.032;21.978;2024-01-27T23:50:43;14.55;;;9.48;;
